sensor_id;sensor_type;location;lat;lon;timestamp;temperature;humidity
33699;DHT22;20032;52.436;13.312;2023-03-14T00:01:50;12.70;99.90
33699;DHT22;20032;52.436;13.312;2023-03-14T00:04:16;12.60;99.90
33699;DHT22;20032;52.436;13.312;2023-03-14T00:06:41;12.60;99.90
33699;DHT22;20032;52.436;13.312;2023-03-14T00:09:07;12.60;99.90
33699;DHT22;20032;52.436;13.312;2023-03-14T00:11:32;12.50;99.90
33699;DHT22;20032;52.436;13.312;2023-03-14T00:13:58;12.50;99.90
33699;DHT22;20032;52.436;13.312;2023-03-14T00:16:26;12.50;99.90
33699;DHT22;20032;52.436;13.312;2023-03-14T00:18:52;12.40;99.90
33699;DHT22;20032;52.436;13.312;2023-03-14T00:21:18;12.40;99.90
33699;DHT22;20032;52.436;13.312;2023-03-14T00:23:45;12.40;99.90
33699;DHT22;20032;52.436;13.312;2023-03-14T00:26:12;12.40;99.90
33699;DHT22;20032;52.436;13.312;2023-03-14T00:28:39;12.40;99.90
33699;DHT22;20032;52.436;13.312;2023-03-14T00:31:06;12.40;99.90
33699;DHT22;20032;52.436;13.312;2023-03-14T00:33:32;12.40;99.90
33699;DHT22;20032;52.436;13.312;2023-03-14T00:36:00;12.40;99.90
33699;DHT22;20032;52.436;13.312;2023-03-14T00:38:26;12.30;99.90
33699;DHT22;20032;52.436;13.312;2023-03-14T00:40:53;12.20;99.90
33699;DHT22;20032;52.436;13.312;2023-03-14T00:43:21;12.30;99.90
33699;DHT22;20032;52.436;13.312;2023-03-14T00:45:49;12.20;99.90
33699;DHT22;20032;52.436;13.312;2023-03-14T00:48:14;12.20;99.90
33699;DHT22;20032;52.436;13.312;2023-03-14T00:50:40;12.20;99.90
33699;DHT22;20032;52.436;13.312;2023-03-14T00:53:05;12.20;99.90
33699;DHT22;20032;52.436;13.312;2023-03-14T00:55:31;12.20;99.90
33699;DHT22;20032;52.436;13.312;2023-03-14T00:57:56;12.10;99.90
33699;DHT22;20032;52.436;13.312;2023-03-14T01:00:22;12.10;99.90
33699;DHT22;20032;52.436;13.312;2023-03-14T01:02:48;12.00;99.90
33699;DHT22;20032;52.436;13.312;2023-03-14T01:05:15;12.00;99.90
33699;DHT22;20032;52.436;13.312;2023-03-14T01:07:40;12.00;99.90
33699;DHT22;20032;52.436;13.312;2023-03-14T01:10:06;12.00;99.90
33699;DHT22;20032;52.436;13.312;2023-03-14T01:12:32;12.00;99.90
33699;DHT22;20032;52.436;13.312;2023-03-14T01:14:58;12.00;99.90
33699;DHT22;20032;52.436;13.312;2023-03-14T01:17:23;12.00;99.90
33699;DHT22;20032;52.436;13.312;2023-03-14T01:19:49;12.00;99.90
33699;DHT22;20032;52.436;13.312;2023-03-14T01:22:14;11.90;99.90
33699;DHT22;20032;52.436;13.312;2023-03-14T01:24:40;11.90;99.90
33699;DHT22;20032;52.436;13.312;2023-03-14T01:27:05;11.90;99.90
33699;DHT22;20032;52.436;13.312;2023-03-14T01:29:31;11.90;99.90
33699;DHT22;20032;52.436;13.312;2023-03-14T01:31:56;11.90;99.90
33699;DHT22;20032;52.436;13.312;2023-03-14T01:34:22;11.90;99.90
33699;DHT22;20032;52.436;13.312;2023-03-14T01:36:47;11.90;99.90
33699;DHT22;20032;52.436;13.312;2023-03-14T01:39:13;11.90;99.90
33699;DHT22;20032;52.436;13.312;2023-03-14T01:41:39;11.80;99.90
33699;DHT22;20032;52.436;13.312;2023-03-14T01:44:10;11.80;99.90
33699;DHT22;20032;52.436;13.312;2023-03-14T01:46:45;11.80;99.90
33699;DHT22;20032;52.436;13.312;2023-03-14T01:49:15;11.80;99.90
33699;DHT22;20032;52.436;13.312;2023-03-14T01:51:50;11.80;99.90
33699;DHT22;20032;52.436;13.312;2023-03-14T01:56:50;11.80;99.90
33699;DHT22;20032;52.436;13.312;2023-03-14T01:59:18;11.70;99.90
33699;DHT22;20032;52.436;13.312;2023-03-14T02:01:46;11.80;99.90
33699;DHT22;20032;52.436;13.312;2023-03-14T02:04:13;11.80;99.90
33699;DHT22;20032;52.436;13.312;2023-03-14T02:06:47;11.70;99.90
33699;DHT22;20032;52.436;13.312;2023-03-14T02:09:14;11.70;99.90
33699;DHT22;20032;52.436;13.312;2023-03-14T02:11:40;11.70;99.90
33699;DHT22;20032;52.436;13.312;2023-03-14T02:14:07;11.80;99.90
33699;DHT22;20032;52.436;13.312;2023-03-14T02:16:35;11.70;99.90
33699;DHT22;20032;52.436;13.312;2023-03-14T02:19:01;11.70;99.90
33699;DHT22;20032;52.436;13.312;2023-03-14T02:21:38;11.70;99.90
33699;DHT22;20032;52.436;13.312;2023-03-14T02:27:07;11.70;99.90
33699;DHT22;20032;52.436;13.312;2023-03-14T02:29:36;11.70;99.90
33699;DHT22;20032;52.436;13.312;2023-03-14T02:32:05;11.70;99.90
33699;DHT22;20032;52.436;13.312;2023-03-14T02:34:31;11.70;99.90
33699;DHT22;20032;52.436;13.312;2023-03-14T02:36:57;11.60;99.90
33699;DHT22;20032;52.436;13.312;2023-03-14T02:39:28;11.70;99.90
33699;DHT22;20032;52.436;13.312;2023-03-14T02:41:56;11.70;99.90
33699;DHT22;20032;52.436;13.312;2023-03-14T02:44:22;11.70;99.90
33699;DHT22;20032;52.436;13.312;2023-03-14T02:46:48;11.70;99.90
33699;DHT22;20032;52.436;13.312;2023-03-14T02:49:14;11.70;99.90
33699;DHT22;20032;52.436;13.312;2023-03-14T02:51:41;11.60;99.90
33699;DHT22;20032;52.436;13.312;2023-03-14T02:54:08;11.70;99.90
33699;DHT22;20032;52.436;13.312;2023-03-14T02:56:33;11.60;99.90
33699;DHT22;20032;52.436;13.312;2023-03-14T02:58:59;11.60;99.90
33699;DHT22;20032;52.436;13.312;2023-03-14T03:01:27;11.60;99.90
33699;DHT22;20032;52.436;13.312;2023-03-14T03:03:53;11.60;99.90
33699;DHT22;20032;52.436;13.312;2023-03-14T03:06:18;11.60;99.90
33699;DHT22;20032;52.436;13.312;2023-03-14T03:08:44;11.60;99.90
33699;DHT22;20032;52.436;13.312;2023-03-14T03:11:11;11.50;99.90
33699;DHT22;20032;52.436;13.312;2023-03-14T03:13:36;11.50;99.90
33699;DHT22;20032;52.436;13.312;2023-03-14T03:16:02;11.50;99.90
33699;DHT22;20032;52.436;13.312;2023-03-14T03:18:28;11.50;99.90
33699;DHT22;20032;52.436;13.312;2023-03-14T03:20:53;11.50;99.90
33699;DHT22;20032;52.436;13.312;2023-03-14T03:23:19;11.50;99.90
33699;DHT22;20032;52.436;13.312;2023-03-14T03:25:49;11.50;99.90
33699;DHT22;20032;52.436;13.312;2023-03-14T03:28:15;11.60;99.90
33699;DHT22;20032;52.436;13.312;2023-03-14T03:30:41;11.60;99.90
33699;DHT22;20032;52.436;13.312;2023-03-14T03:33:07;11.60;99.90
33699;DHT22;20032;52.436;13.312;2023-03-14T03:35:33;11.50;99.90
33699;DHT22;20032;52.436;13.312;2023-03-14T03:37:58;11.50;99.90
33699;DHT22;20032;52.436;13.312;2023-03-14T03:40:24;11.50;99.90
33699;DHT22;20032;52.436;13.312;2023-03-14T03:42:49;11.50;99.90
33699;DHT22;20032;52.436;13.312;2023-03-14T03:45:15;11.50;99.90
33699;DHT22;20032;52.436;13.312;2023-03-14T03:47:40;11.50;99.90
33699;DHT22;20032;52.436;13.312;2023-03-14T03:50:06;11.50;99.90
33699;DHT22;20032;52.436;13.312;2023-03-14T03:52:32;11.50;99.90
33699;DHT22;20032;52.436;13.312;2023-03-14T03:54:57;11.50;99.90
33699;DHT22;20032;52.436;13.312;2023-03-14T03:57:23;11.50;99.90
33699;DHT22;20032;52.436;13.312;2023-03-14T03:59:48;11.50;99.90
33699;DHT22;20032;52.436;13.312;2023-03-14T04:02:14;11.40;99.90
33699;DHT22;20032;52.436;13.312;2023-03-14T04:04:39;11.40;99.90
33699;DHT22;20032;52.436;13.312;2023-03-14T04:07:05;11.40;99.90
33699;DHT22;20032;52.436;13.312;2023-03-14T04:09:31;11.30;99.90
33699;DHT22;20032;52.436;13.312;2023-03-14T04:11:56;11.40;99.90
33699;DHT22;20032;52.436;13.312;2023-03-14T04:14:22;11.40;99.90
33699;DHT22;20032;52.436;13.312;2023-03-14T04:16:47;11.40;99.90
33699;DHT22;20032;52.436;13.312;2023-03-14T04:19:13;11.30;99.90
33699;DHT22;20032;52.436;13.312;2023-03-14T04:21:38;11.30;99.90
33699;DHT22;20032;52.436;13.312;2023-03-14T04:24:09;11.30;99.90
33699;DHT22;20032;52.436;13.312;2023-03-14T04:26:34;11.30;99.90
33699;DHT22;20032;52.436;13.312;2023-03-14T04:29:00;11.30;99.90
33699;DHT22;20032;52.436;13.312;2023-03-14T04:31:25;11.30;99.90
33699;DHT22;20032;52.436;13.312;2023-03-14T04:33:51;11.30;99.90
33699;DHT22;20032;52.436;13.312;2023-03-14T04:36:17;11.30;99.90
33699;DHT22;20032;52.436;13.312;2023-03-14T04:38:42;11.40;99.90
33699;DHT22;20032;52.436;13.312;2023-03-14T04:41:07;11.30;99.90
33699;DHT22;20032;52.436;13.312;2023-03-14T04:43:33;11.30;99.90
33699;DHT22;20032;52.436;13.312;2023-03-14T04:45:59;11.30;99.90
33699;DHT22;20032;52.436;13.312;2023-03-14T04:48:25;11.20;99.90
33699;DHT22;20032;52.436;13.312;2023-03-14T04:50:51;11.20;99.90
33699;DHT22;20032;52.436;13.312;2023-03-14T04:53:17;11.20;99.90
33699;DHT22;20032;52.436;13.312;2023-03-14T04:55:50;11.20;99.90
33699;DHT22;20032;52.436;13.312;2023-03-14T04:58:15;11.20;99.90
33699;DHT22;20032;52.436;13.312;2023-03-14T05:00:41;11.20;99.90
33699;DHT22;20032;52.436;13.312;2023-03-14T05:03:06;11.20;99.90
33699;DHT22;20032;52.436;13.312;2023-03-14T05:05:33;11.20;99.90
33699;DHT22;20032;52.436;13.312;2023-03-14T05:07:58;11.20;99.90
33699;DHT22;20032;52.436;13.312;2023-03-14T05:10:24;11.20;99.90
33699;DHT22;20032;52.436;13.312;2023-03-14T05:12:50;11.20;99.90
33699;DHT22;20032;52.436;13.312;2023-03-14T05:15:16;11.20;99.90
33699;DHT22;20032;52.436;13.312;2023-03-14T05:17:41;11.20;99.90
33699;DHT22;20032;52.436;13.312;2023-03-14T05:20:08;11.20;99.90
33699;DHT22;20032;52.436;13.312;2023-03-14T05:22:35;11.20;99.90
33699;DHT22;20032;52.436;13.312;2023-03-14T05:25:01;11.20;99.90
33699;DHT22;20032;52.436;13.312;2023-03-14T05:27:26;11.20;99.90
33699;DHT22;20032;52.436;13.312;2023-03-14T05:29:52;11.20;99.90
33699;DHT22;20032;52.436;13.312;2023-03-14T05:32:17;11.20;99.90
33699;DHT22;20032;52.436;13.312;2023-03-14T05:34:43;11.20;99.90
33699;DHT22;20032;52.436;13.312;2023-03-14T05:37:08;11.20;99.90
33699;DHT22;20032;52.436;13.312;2023-03-14T05:39:33;11.20;99.90
33699;DHT22;20032;52.436;13.312;2023-03-14T05:41:59;11.20;99.90
33699;DHT22;20032;52.436;13.312;2023-03-14T05:44:25;11.30;99.90
33699;DHT22;20032;52.436;13.312;2023-03-14T05:46:51;11.30;99.90
33699;DHT22;20032;52.436;13.312;2023-03-14T05:49:16;11.30;99.90
33699;DHT22;20032;52.436;13.312;2023-03-14T05:51:42;11.30;99.90
33699;DHT22;20032;52.436;13.312;2023-03-14T05:54:09;11.20;99.90
33699;DHT22;20032;52.436;13.312;2023-03-14T05:56:34;11.20;99.90
33699;DHT22;20032;52.436;13.312;2023-03-14T05:58:59;11.20;99.90
33699;DHT22;20032;52.436;13.312;2023-03-14T06:01:27;11.30;99.90
33699;DHT22;20032;52.436;13.312;2023-03-14T06:03:53;11.30;99.90
33699;DHT22;20032;52.436;13.312;2023-03-14T06:06:18;11.30;99.90
33699;DHT22;20032;52.436;13.312;2023-03-14T06:08:43;11.30;99.90
33699;DHT22;20032;52.436;13.312;2023-03-14T06:11:09;11.30;99.90
33699;DHT22;20032;52.436;13.312;2023-03-14T06:13:35;11.30;99.90
33699;DHT22;20032;52.436;13.312;2023-03-14T06:16:00;11.30;99.90
33699;DHT22;20032;52.436;13.312;2023-03-14T06:18:26;11.30;99.90
33699;DHT22;20032;52.436;13.312;2023-03-14T06:20:55;11.40;99.90
33699;DHT22;20032;52.436;13.312;2023-03-14T06:23:22;11.40;99.90
33699;DHT22;20032;52.436;13.312;2023-03-14T06:25:48;11.40;99.90
33699;DHT22;20032;52.436;13.312;2023-03-14T06:28:13;11.40;99.90
33699;DHT22;20032;52.436;13.312;2023-03-14T06:30:39;11.50;99.90
33699;DHT22;20032;52.436;13.312;2023-03-14T06:33:04;11.50;99.90
33699;DHT22;20032;52.436;13.312;2023-03-14T06:35:30;11.50;99.90
33699;DHT22;20032;52.436;13.312;2023-03-14T06:37:56;11.50;99.90
33699;DHT22;20032;52.436;13.312;2023-03-14T06:40:22;11.50;99.90
33699;DHT22;20032;52.436;13.312;2023-03-14T06:42:48;11.50;99.90
33699;DHT22;20032;52.436;13.312;2023-03-14T06:45:14;11.50;99.90
33699;DHT22;20032;52.436;13.312;2023-03-14T06:47:39;11.60;99.90
33699;DHT22;20032;52.436;13.312;2023-03-14T06:50:06;11.60;99.90
33699;DHT22;20032;52.436;13.312;2023-03-14T06:52:32;11.70;99.90
33699;DHT22;20032;52.436;13.312;2023-03-14T06:54:58;11.70;99.90
33699;DHT22;20032;52.436;13.312;2023-03-14T06:57:23;11.70;99.90
33699;DHT22;20032;52.436;13.312;2023-03-14T06:59:49;11.70;99.90
33699;DHT22;20032;52.436;13.312;2023-03-14T07:02:14;11.70;99.90
33699;DHT22;20032;52.436;13.312;2023-03-14T07:04:40;11.80;99.90
33699;DHT22;20032;52.436;13.312;2023-03-14T07:07:05;11.80;99.90
33699;DHT22;20032;52.436;13.312;2023-03-14T07:09:33;11.80;99.90
33699;DHT22;20032;52.436;13.312;2023-03-14T07:11:59;11.80;99.90
33699;DHT22;20032;52.436;13.312;2023-03-14T07:14:25;11.80;99.90
33699;DHT22;20032;52.436;13.312;2023-03-14T07:16:50;11.80;99.90
33699;DHT22;20032;52.436;13.312;2023-03-14T07:19:16;11.80;99.90
33699;DHT22;20032;52.436;13.312;2023-03-14T07:21:41;11.80;99.90
33699;DHT22;20032;52.436;13.312;2023-03-14T07:24:07;11.70;99.90
33699;DHT22;20032;52.436;13.312;2023-03-14T07:26:33;11.80;99.90
33699;DHT22;20032;52.436;13.312;2023-03-14T07:28:59;11.80;99.90
33699;DHT22;20032;52.436;13.312;2023-03-14T07:31:24;11.90;99.90
33699;DHT22;20032;52.436;13.312;2023-03-14T07:33:50;11.90;99.90
33699;DHT22;20032;52.436;13.312;2023-03-14T07:36:15;11.90;99.90
33699;DHT22;20032;52.436;13.312;2023-03-14T07:38:41;11.90;99.90
33699;DHT22;20032;52.436;13.312;2023-03-14T07:41:06;11.90;99.90
33699;DHT22;20032;52.436;13.312;2023-03-14T07:43:33;11.90;99.90
33699;DHT22;20032;52.436;13.312;2023-03-14T07:45:59;11.90;99.90
33699;DHT22;20032;52.436;13.312;2023-03-14T07:48:24;11.90;99.90
33699;DHT22;20032;52.436;13.312;2023-03-14T07:50:52;12.00;99.90
33699;DHT22;20032;52.436;13.312;2023-03-14T07:53:19;12.00;99.90
33699;DHT22;20032;52.436;13.312;2023-03-14T07:55:45;12.10;99.90
33699;DHT22;20032;52.436;13.312;2023-03-14T07:58:11;12.10;99.90
33699;DHT22;20032;52.436;13.312;2023-03-14T08:00:36;12.10;99.90
33699;DHT22;20032;52.436;13.312;2023-03-14T08:03:02;12.20;99.90
33699;DHT22;20032;52.436;13.312;2023-03-14T08:05:27;12.30;99.90
33699;DHT22;20032;52.436;13.312;2023-03-14T08:07:53;12.20;99.90
33699;DHT22;20032;52.436;13.312;2023-03-14T08:10:18;12.30;99.90
33699;DHT22;20032;52.436;13.312;2023-03-14T08:12:49;12.30;99.90
33699;DHT22;20032;52.436;13.312;2023-03-14T08:15:14;12.40;99.90
33699;DHT22;20032;52.436;13.312;2023-03-14T08:17:39;12.40;99.90
33699;DHT22;20032;52.436;13.312;2023-03-14T08:20:05;12.50;99.90
33699;DHT22;20032;52.436;13.312;2023-03-14T08:22:34;12.50;99.90
33699;DHT22;20032;52.436;13.312;2023-03-14T08:25:00;12.60;99.90
33699;DHT22;20032;52.436;13.312;2023-03-14T08:27:25;12.50;99.90
33699;DHT22;20032;52.436;13.312;2023-03-14T08:29:51;12.50;99.90
33699;DHT22;20032;52.436;13.312;2023-03-14T08:32:16;12.50;99.90
33699;DHT22;20032;52.436;13.312;2023-03-14T08:34:43;12.50;99.90
33699;DHT22;20032;52.436;13.312;2023-03-14T08:37:08;12.50;99.90
33699;DHT22;20032;52.436;13.312;2023-03-14T08:39:34;12.50;99.90
33699;DHT22;20032;52.436;13.312;2023-03-14T08:41:59;12.60;99.90
33699;DHT22;20032;52.436;13.312;2023-03-14T08:44:25;12.60;99.90
33699;DHT22;20032;52.436;13.312;2023-03-14T08:46:50;12.70;99.90
33699;DHT22;20032;52.436;13.312;2023-03-14T08:49:16;12.70;99.90
33699;DHT22;20032;52.436;13.312;2023-03-14T08:51:41;12.70;99.90
33699;DHT22;20032;52.436;13.312;2023-03-14T08:54:10;12.70;99.90
33699;DHT22;20032;52.436;13.312;2023-03-14T08:56:36;12.60;99.90
33699;DHT22;20032;52.436;13.312;2023-03-14T08:59:03;12.60;99.90
33699;DHT22;20032;52.436;13.312;2023-03-14T09:01:29;12.70;99.90
33699;DHT22;20032;52.436;13.312;2023-03-14T09:03:54;12.70;99.90
33699;DHT22;20032;52.436;13.312;2023-03-14T09:06:20;12.70;99.90
33699;DHT22;20032;52.436;13.312;2023-03-14T09:08:45;12.80;99.90
33699;DHT22;20032;52.436;13.312;2023-03-14T09:11:11;12.80;99.90
33699;DHT22;20032;52.436;13.312;2023-03-14T09:13:36;12.90;99.90
33699;DHT22;20032;52.436;13.312;2023-03-14T09:16:02;13.00;99.90
33699;DHT22;20032;52.436;13.312;2023-03-14T09:18:28;13.20;99.90
33699;DHT22;20032;52.436;13.312;2023-03-14T09:20:55;13.30;99.90
33699;DHT22;20032;52.436;13.312;2023-03-14T09:23:21;13.40;99.90
33699;DHT22;20032;52.436;13.312;2023-03-14T09:25:46;13.60;99.90
33699;DHT22;20032;52.436;13.312;2023-03-14T09:28:12;13.80;99.90
33699;DHT22;20032;52.436;13.312;2023-03-14T09:30:39;13.90;99.90
33699;DHT22;20032;52.436;13.312;2023-03-14T09:33:04;14.20;99.90
33699;DHT22;20032;52.436;13.312;2023-03-14T09:35:33;14.30;99.90
33699;DHT22;20032;52.436;13.312;2023-03-14T09:37:59;14.50;99.90
33699;DHT22;20032;52.436;13.312;2023-03-14T09:40:31;14.60;99.90
33699;DHT22;20032;52.436;13.312;2023-03-14T09:42:58;14.60;99.90
33699;DHT22;20032;52.436;13.312;2023-03-14T09:45:33;14.60;99.90
33699;DHT22;20032;52.436;13.312;2023-03-14T09:48:00;14.20;99.90
33699;DHT22;20032;52.436;13.312;2023-03-14T09:50:32;13.90;99.90
33699;DHT22;20032;52.436;13.312;2023-03-14T09:53:03;13.90;99.90
33699;DHT22;20032;52.436;13.312;2023-03-14T09:55:31;13.80;99.90
33699;DHT22;20032;52.436;13.312;2023-03-14T09:58:00;13.80;99.90
33699;DHT22;20032;52.436;13.312;2023-03-14T10:00:29;13.70;99.90
33699;DHT22;20032;52.436;13.312;2023-03-14T10:03:32;13.70;99.90
33699;DHT22;20032;52.436;13.312;2023-03-14T10:05:45;13.70;99.90
33699;DHT22;20032;52.436;13.312;2023-03-14T10:08:12;13.70;99.90
33699;DHT22;20032;52.436;13.312;2023-03-14T10:10:38;13.70;99.90
33699;DHT22;20032;52.436;13.312;2023-03-14T10:13:22;13.70;99.90
33699;DHT22;20032;52.436;13.312;2023-03-14T10:15:57;13.70;99.90
33699;DHT22;20032;52.436;13.312;2023-03-14T10:18:24;13.70;99.90
33699;DHT22;20032;52.436;13.312;2023-03-14T10:23:32;13.70;99.90
33699;DHT22;20032;52.436;13.312;2023-03-14T10:26:03;13.60;99.90
33699;DHT22;20032;52.436;13.312;2023-03-14T10:28:32;13.60;99.90
33699;DHT22;20032;52.436;13.312;2023-03-14T10:31:01;13.70;99.90
33699;DHT22;20032;52.436;13.312;2023-03-14T10:33:30;13.60;99.90
33699;DHT22;20032;52.436;13.312;2023-03-14T10:35:59;13.50;99.90
33699;DHT22;20032;52.436;13.312;2023-03-14T10:38:28;13.50;99.90
33699;DHT22;20032;52.436;13.312;2023-03-14T10:40:55;13.60;99.90
33699;DHT22;20032;52.436;13.312;2023-03-14T10:43:25;13.50;99.90
33699;DHT22;20032;52.436;13.312;2023-03-14T10:45:55;13.50;99.90
33699;DHT22;20032;52.436;13.312;2023-03-14T10:48:30;13.50;99.90
33699;DHT22;20032;52.436;13.312;2023-03-14T10:51:04;13.50;99.90
33699;DHT22;20032;52.436;13.312;2023-03-14T10:53:55;13.50;99.90
33699;DHT22;20032;52.436;13.312;2023-03-14T10:56:24;13.60;99.90
33699;DHT22;20032;52.436;13.312;2023-03-14T10:58:53;13.60;99.90
33699;DHT22;20032;52.436;13.312;2023-03-14T11:01:39;13.70;99.90
33699;DHT22;20032;52.436;13.312;2023-03-14T11:06:59;13.70;99.90
33699;DHT22;20032;52.436;13.312;2023-03-14T11:09:34;13.70;99.90
33699;DHT22;20032;52.436;13.312;2023-03-14T11:12:32;13.70;99.90
33699;DHT22;20032;52.436;13.312;2023-03-14T11:15:02;13.70;99.90
33699;DHT22;20032;52.436;13.312;2023-03-14T11:17:34;13.70;99.90
33699;DHT22;20032;52.436;13.312;2023-03-14T11:20:23;13.70;99.90
33699;DHT22;20032;52.436;13.312;2023-03-14T11:23:01;13.70;99.90
33699;DHT22;20032;52.436;13.312;2023-03-14T11:25:39;13.70;99.90
33699;DHT22;20032;52.436;13.312;2023-03-14T11:28:35;13.80;99.90
33699;DHT22;20032;52.436;13.312;2023-03-14T11:31:38;13.70;99.90
33699;DHT22;20032;52.436;13.312;2023-03-14T11:34:01;13.70;99.90
33699;DHT22;20032;52.436;13.312;2023-03-14T11:39:02;13.60;99.90
33699;DHT22;20032;52.436;13.312;2023-03-14T11:41:37;13.50;99.90
33699;DHT22;20032;52.436;13.312;2023-03-14T11:44:14;13.50;99.90
33699;DHT22;20032;52.436;13.312;2023-03-14T11:46:55;13.50;99.90
33699;DHT22;20032;52.436;13.312;2023-03-14T11:49:32;13.40;99.90
33699;DHT22;20032;52.436;13.312;2023-03-14T11:52:03;13.50;99.90
33699;DHT22;20032;52.436;13.312;2023-03-14T11:54:43;13.50;99.90
33699;DHT22;20032;52.436;13.312;2023-03-14T11:57:14;13.50;99.90
33699;DHT22;20032;52.436;13.312;2023-03-14T12:00:12;13.50;99.90
33699;DHT22;20032;52.436;13.312;2023-03-14T12:02:48;13.40;99.90
33699;DHT22;20032;52.436;13.312;2023-03-14T12:09:03;13.40;99.90
33699;DHT22;20032;52.436;13.312;2023-03-14T12:11:29;13.60;99.90
33699;DHT22;20032;52.436;13.312;2023-03-14T12:13:55;13.60;99.90
33699;DHT22;20032;52.436;13.312;2023-03-14T12:16:30;13.60;99.90
33699;DHT22;20032;52.436;13.312;2023-03-14T12:18:55;13.60;99.90
33699;DHT22;20032;52.436;13.312;2023-03-14T12:21:43;13.60;99.90
33699;DHT22;20032;52.436;13.312;2023-03-14T12:24:18;13.50;99.90
33699;DHT22;20032;52.436;13.312;2023-03-14T12:26:54;13.60;99.90
33699;DHT22;20032;52.436;13.312;2023-03-14T12:29:20;13.60;99.90
33699;DHT22;20032;52.436;13.312;2023-03-14T12:31:48;13.60;99.90
33699;DHT22;20032;52.436;13.312;2023-03-14T12:39:37;13.50;99.90
33699;DHT22;20032;52.436;13.312;2023-03-14T12:47:52;13.70;99.90
33699;DHT22;20032;52.436;13.312;2023-03-14T12:50:24;13.70;99.90
33699;DHT22;20032;52.436;13.312;2023-03-14T12:53:03;13.60;99.90
33699;DHT22;20032;52.436;13.312;2023-03-14T12:55:45;13.60;99.90
33699;DHT22;20032;52.436;13.312;2023-03-14T12:58:21;13.70;99.90
33699;DHT22;20032;52.436;13.312;2023-03-14T13:00:56;13.70;99.90
33699;DHT22;20032;52.436;13.312;2023-03-14T13:03:25;13.50;99.90
33699;DHT22;20032;52.436;13.312;2023-03-14T13:06:01;13.40;99.90
33699;DHT22;20032;52.436;13.312;2023-03-14T13:08:34;13.30;99.90
33699;DHT22;20032;52.436;13.312;2023-03-14T13:11:02;13.20;99.90
33699;DHT22;20032;52.436;13.312;2023-03-14T13:13:29;13.10;99.90
33699;DHT22;20032;52.436;13.312;2023-03-14T13:15:56;13.10;99.90
33699;DHT22;20032;52.436;13.312;2023-03-14T13:18:36;13.10;99.90
33699;DHT22;20032;52.436;13.312;2023-03-14T13:21:21;13.00;99.90
33699;DHT22;20032;52.436;13.312;2023-03-14T13:23:59;13.00;99.90
33699;DHT22;20032;52.436;13.312;2023-03-14T13:26:34;13.00;99.90
33699;DHT22;20032;52.436;13.312;2023-03-14T13:29:14;13.20;99.90
33699;DHT22;20032;52.436;13.312;2023-03-14T13:31:44;13.30;99.90
33699;DHT22;20032;52.436;13.312;2023-03-14T13:34:11;14.00;99.90
33699;DHT22;20032;52.436;13.312;2023-03-14T13:36:37;15.10;99.90
33699;DHT22;20032;52.436;13.312;2023-03-14T13:39:09;16.10;99.90
33699;DHT22;20032;52.436;13.312;2023-03-14T13:41:37;16.80;99.90
33699;DHT22;20032;52.436;13.312;2023-03-14T13:44:07;16.90;99.90
33699;DHT22;20032;52.436;13.312;2023-03-14T13:46:35;16.30;99.90
33699;DHT22;20032;52.436;13.312;2023-03-14T13:49:04;16.00;99.90
33699;DHT22;20032;52.436;13.312;2023-03-14T13:51:31;15.60;99.90
33699;DHT22;20032;52.436;13.312;2023-03-14T13:53:58;15.70;99.90
33699;DHT22;20032;52.436;13.312;2023-03-14T13:56:28;16.00;99.90
33699;DHT22;20032;52.436;13.312;2023-03-14T13:58:54;16.70;99.90
33699;DHT22;20032;52.436;13.312;2023-03-14T14:01:29;17.20;99.90
33699;DHT22;20032;52.436;13.312;2023-03-14T14:03:57;17.10;99.90
33699;DHT22;20032;52.436;13.312;2023-03-14T14:06:26;17.00;99.90
33699;DHT22;20032;52.436;13.312;2023-03-14T14:08:53;16.70;99.90
33699;DHT22;20032;52.436;13.312;2023-03-14T14:11:34;16.40;99.90
33699;DHT22;20032;52.436;13.312;2023-03-14T14:14:02;16.70;99.90
33699;DHT22;20032;52.436;13.312;2023-03-14T14:16:30;16.70;99.90
33699;DHT22;20032;52.436;13.312;2023-03-14T14:18:56;16.70;99.90
33699;DHT22;20032;52.436;13.312;2023-03-14T14:21:22;16.40;99.90
33699;DHT22;20032;52.436;13.312;2023-03-14T14:23:49;16.00;99.90
33699;DHT22;20032;52.436;13.312;2023-03-14T14:26:18;15.60;99.90
33699;DHT22;20032;52.436;13.312;2023-03-14T14:28:44;15.10;99.90
33699;DHT22;20032;52.436;13.312;2023-03-14T14:33:46;15.20;99.90
33699;DHT22;20032;52.436;13.312;2023-03-14T14:36:21;15.40;99.90
33699;DHT22;20032;52.436;13.312;2023-03-14T14:41:40;15.20;99.90
33699;DHT22;20032;52.436;13.312;2023-03-14T14:44:06;15.20;99.90
33699;DHT22;20032;52.436;13.312;2023-03-14T14:46:35;15.00;99.90
33699;DHT22;20032;52.436;13.312;2023-03-14T14:49:06;14.90;99.90
33699;DHT22;20032;52.436;13.312;2023-03-14T14:51:40;14.80;99.90
33699;DHT22;20032;52.436;13.312;2023-03-14T14:54:12;14.70;99.90
33699;DHT22;20032;52.436;13.312;2023-03-14T14:56:39;14.70;99.90
33699;DHT22;20032;52.436;13.312;2023-03-14T14:59:06;14.60;99.90
33699;DHT22;20032;52.436;13.312;2023-03-14T15:01:36;14.50;99.90
33699;DHT22;20032;52.436;13.312;2023-03-14T15:04:04;14.30;99.90
33699;DHT22;20032;52.436;13.312;2023-03-14T15:06:34;14.20;99.90
33699;DHT22;20032;52.436;13.312;2023-03-14T15:09:00;14.20;99.90
33699;DHT22;20032;52.436;13.312;2023-03-14T15:11:26;14.10;99.90
33699;DHT22;20032;52.436;13.312;2023-03-14T15:13:52;13.90;99.90
33699;DHT22;20032;52.436;13.312;2023-03-14T15:16:23;13.60;99.90
33699;DHT22;20032;52.436;13.312;2023-03-14T15:18:54;13.10;99.90
33699;DHT22;20032;52.436;13.312;2023-03-14T15:21:21;12.40;99.90
33699;DHT22;20032;52.436;13.312;2023-03-14T15:23:48;11.50;99.90
33699;DHT22;20032;52.436;13.312;2023-03-14T15:26:16;10.60;99.90
33699;DHT22;20032;52.436;13.312;2023-03-14T15:28:42;9.90;99.90
33699;DHT22;20032;52.436;13.312;2023-03-14T15:31:10;9.50;99.90
33699;DHT22;20032;52.436;13.312;2023-03-14T15:33:36;9.20;99.90
33699;DHT22;20032;52.436;13.312;2023-03-14T15:36:04;8.70;99.90
33699;DHT22;20032;52.436;13.312;2023-03-14T15:38:29;8.60;99.90
33699;DHT22;20032;52.436;13.312;2023-03-14T15:40:55;8.50;99.90
33699;DHT22;20032;52.436;13.312;2023-03-14T15:43:20;8.60;99.90
33699;DHT22;20032;52.436;13.312;2023-03-14T15:45:46;8.50;99.90
33699;DHT22;20032;52.436;13.312;2023-03-14T15:48:15;8.10;99.90
33699;DHT22;20032;52.436;13.312;2023-03-14T15:50:42;8.20;99.90
33699;DHT22;20032;52.436;13.312;2023-03-14T15:53:08;7.80;99.90
33699;DHT22;20032;52.436;13.312;2023-03-14T15:55:34;7.50;99.90
33699;DHT22;20032;52.436;13.312;2023-03-14T15:57:59;7.20;99.90